createdAt,value
2022-11-27T00:01:30.502Z,19.80
2022-11-27T00:03:57.841Z,20.00
2022-11-27T00:06:28.237Z,18.73
2022-11-27T00:09:00.893Z,19.60
2022-11-27T00:11:30.422Z,18.73
2022-11-27T00:13:57.629Z,19.83
2022-11-27T00:16:26.568Z,19.73
2022-11-27T00:18:53.961Z,19.37
2022-11-27T00:21:28.416Z,19.30
2022-11-27T00:23:57.716Z,19.60
2022-11-27T00:26:25.948Z,19.50
2022-11-27T00:28:52.893Z,17.87
2022-11-27T00:31:40.207Z,16.90
2022-11-27T00:34:08.927Z,19.10
2022-11-27T00:36:36.918Z,18.23
2022-11-27T00:39:04.295Z,16.83
2022-11-27T00:41:31.543Z,17.70
2022-11-27T00:43:58.543Z,17.33
2022-11-27T00:46:29.827Z,17.47
2022-11-27T00:48:58.537Z,18.47
2022-11-27T00:51:26.916Z,15.27
2022-11-27T00:53:54.796Z,13.90
2022-11-27T00:56:32.076Z,13.90
2022-11-27T00:58:59.565Z,13.40
2022-11-27T01:01:31.304Z,15.03
2022-11-27T01:04:00.588Z,15.63
2022-11-27T01:06:29.229Z,15.10
2022-11-27T01:08:57.539Z,15.77
2022-11-27T01:11:32.689Z,14.90
2022-11-27T01:14:07.102Z,15.23
2022-11-27T01:16:35.395Z,14.63
2022-11-27T01:19:03.460Z,15.27
2022-11-27T01:21:34.665Z,16.13
2022-11-27T01:24:03.698Z,16.07
2022-11-27T01:26:31.301Z,15.60
2022-11-27T01:28:59.068Z,15.13
2022-11-27T01:31:31.562Z,15.50
2022-11-27T01:34:14.293Z,15.50
2022-11-27T01:36:41.298Z,14.60
2022-11-27T01:39:08.345Z,14.47
2022-11-27T01:41:39.769Z,14.00
2022-11-27T01:44:24.986Z,14.40
2022-11-27T01:47:02.202Z,14.47
2022-11-27T01:49:28.981Z,13.53
2022-11-27T01:52:28.600Z,13.37
2022-11-27T01:55:36.688Z,12.80
2022-11-27T01:58:14.444Z,13.10
2022-11-27T02:00:41.881Z,11.90
2022-11-27T02:03:09.445Z,12.03
2022-11-27T02:05:36.504Z,12.53
2022-11-27T02:08:10.938Z,12.60
2022-11-27T02:11:04.998Z,13.70
2022-11-27T02:13:45.397Z,12.57
2022-11-27T02:16:22.362Z,13.60
2022-11-27T02:18:57.548Z,12.43
2022-11-27T02:21:41.995Z,12.70
2022-11-27T02:24:51.781Z,10.80
2022-11-27T02:27:34.520Z,12.00
2022-11-27T02:30:03.316Z,11.83
2022-11-27T02:32:39.876Z,11.10
2022-11-27T02:35:52.552Z,12.60
2022-11-27T02:38:38.202Z,10.83
2022-11-27T02:41:07.982Z,11.40
2022-11-27T02:43:45.986Z,11.33
2022-11-27T02:46:14.530Z,11.07
2022-11-27T02:48:50.207Z,10.63
2022-11-27T02:51:23.581Z,10.27
2022-11-27T02:53:57.311Z,9.90
2022-11-27T02:56:28.734Z,10.87
2022-11-27T02:59:00.665Z,11.00
2022-11-27T03:01:32.942Z,9.73
2022-11-27T03:04:02.495Z,9.73
2022-11-27T03:06:40.663Z,9.60
2022-11-27T03:09:14.930Z,8.93
2022-11-27T03:11:42.152Z,9.80
2022-11-27T03:14:11.151Z,9.80
2022-11-27T03:17:27.863Z,9.43
2022-11-27T03:20:26.436Z,8.27
2022-11-27T03:22:54.801Z,8.30
2022-11-27T03:25:23.708Z,8.60
2022-11-27T03:28:00.085Z,9.73
2022-11-27T03:30:27.428Z,7.80
2022-11-27T03:32:55.230Z,8.30
2022-11-27T03:35:26.917Z,7.87
2022-11-27T03:37:54.709Z,7.63
2022-11-27T03:40:29.622Z,7.67
2022-11-27T03:43:09.872Z,7.50
2022-11-27T03:46:01.225Z,6.57
2022-11-27T03:48:43.600Z,6.90
2022-11-27T03:51:30.975Z,7.50
2022-11-27T03:54:36.832Z,6.27
2022-11-27T03:57:25.751Z,6.07
2022-11-27T03:59:54.856Z,6.20
2022-11-27T04:02:34.158Z,6.87
2022-11-27T04:05:01.431Z,6.50
2022-11-27T04:07:28.479Z,5.50
2022-11-27T04:09:55.455Z,6.17
2022-11-27T04:12:22.761Z,6.03
2022-11-27T04:14:49.717Z,5.40
2022-11-27T04:17:16.617Z,5.20
2022-11-27T04:19:43.541Z,6.17
2022-11-27T04:22:10.484Z,5.70
2022-11-27T04:24:37.474Z,6.20
2022-11-27T04:27:04.456Z,6.03
2022-11-27T04:29:31.373Z,5.40
2022-11-27T04:31:58.251Z,5.10
2022-11-27T04:34:25.085Z,5.77
2022-11-27T04:36:51.994Z,6.40
2022-11-27T04:39:18.964Z,5.63
2022-11-27T04:41:46.297Z,6.07
2022-11-27T04:44:13.941Z,6.07
2022-11-27T04:46:40.880Z,6.40
2022-11-27T04:49:09.244Z,5.10
2022-11-27T04:51:36.228Z,4.27
2022-11-27T04:54:03.129Z,4.90
2022-11-27T04:56:30.065Z,5.20
2022-11-27T04:58:57.377Z,5.30
2022-11-27T05:01:24.284Z,5.83
2022-11-27T05:03:51.572Z,5.30
2022-11-27T05:06:18.482Z,5.50
2022-11-27T05:08:45.852Z,5.93
2022-11-27T05:11:16.011Z,6.10
2022-11-27T05:13:44.504Z,5.40
2022-11-27T05:16:11.598Z,6.30
2022-11-27T05:18:38.540Z,5.83
2022-11-27T05:21:08.252Z,7.10
2022-11-27T05:23:35.747Z,6.40
2022-11-27T05:26:03.428Z,6.80
2022-11-27T05:28:30.456Z,6.30
2022-11-27T05:30:57.607Z,6.20
2022-11-27T05:33:24.590Z,5.20
2022-11-27T05:35:51.463Z,6.17
2022-11-27T05:38:18.391Z,6.07
2022-11-27T05:40:45.279Z,5.90
2022-11-27T05:43:12.296Z,5.97
2022-11-27T05:45:39.222Z,5.53
2022-11-27T05:48:06.571Z,5.50
2022-11-27T05:50:33.475Z,6.20
2022-11-27T05:53:00.692Z,8.60
2022-11-27T05:55:27.669Z,6.53
2022-11-27T05:57:54.623Z,6.57
2022-11-27T06:00:21.720Z,8.13
2022-11-27T06:02:48.789Z,8.07
2022-11-27T06:05:15.874Z,6.97
2022-11-27T06:07:42.834Z,7.03
2022-11-27T06:10:10.424Z,6.90
2022-11-27T06:12:37.380Z,7.27
2022-11-27T06:15:04.774Z,6.30
2022-11-27T06:17:31.694Z,6.50
2022-11-27T06:19:58.577Z,6.20
2022-11-27T06:22:25.508Z,6.27
2022-11-27T06:24:52.738Z,5.90
2022-11-27T06:27:19.665Z,7.40
2022-11-27T06:29:46.559Z,6.30
2022-11-27T06:32:13.596Z,6.57
2022-11-27T06:34:40.776Z,9.70
2022-11-27T06:37:12.854Z,11.40
2022-11-27T06:39:40.237Z,7.70
2022-11-27T06:42:07.208Z,7.20
2022-11-27T06:44:34.152Z,6.60
2022-11-27T06:47:01.063Z,5.80
2022-11-27T06:49:28.358Z,7.50
2022-11-27T06:51:55.246Z,7.00
2022-11-27T06:54:22.232Z,7.73
2022-11-27T06:56:52.373Z,8.87
2022-11-27T06:59:19.878Z,13.10
2022-11-27T07:01:47.099Z,15.77
2022-11-27T07:04:15.866Z,14.37
2022-11-27T07:06:43.569Z,12.67
2022-11-27T07:09:10.580Z,12.50
2022-11-27T07:11:39.676Z,14.27
2022-11-27T07:14:07.372Z,14.50
2022-11-27T07:16:36.567Z,13.67
2022-11-27T07:19:07.882Z,14.83
2022-11-27T07:21:38.105Z,13.20
2022-11-27T07:24:05.701Z,13.17
2022-11-27T07:26:32.972Z,13.97
2022-11-27T07:28:59.981Z,13.73
2022-11-27T07:31:30.958Z,14.97
2022-11-27T07:33:58.711Z,13.50
2022-11-27T07:36:29.726Z,13.87
2022-11-27T07:38:58.126Z,13.77
2022-11-27T07:41:29.159Z,13.53
2022-11-27T07:43:59.354Z,12.33
2022-11-27T07:46:26.860Z,13.73
2022-11-27T07:48:53.815Z,12.97
2022-11-27T07:51:22.464Z,13.20
2022-11-27T07:53:51.878Z,11.93
2022-11-27T07:56:19.224Z,11.40
2022-11-27T07:58:46.707Z,11.53
2022-11-27T08:01:17.108Z,13.20
2022-11-27T08:03:44.385Z,13.10
2022-11-27T08:06:23.510Z,14.60
2022-11-27T08:08:51.845Z,12.63
2022-11-27T08:11:26.965Z,11.73
2022-11-27T08:14:05.724Z,12.47
2022-11-27T08:16:34.141Z,13.30
2022-11-27T08:19:01.780Z,13.23
2022-11-27T08:21:30.212Z,12.87
2022-11-27T08:23:58.150Z,13.07
2022-11-27T08:26:27.508Z,11.80
2022-11-27T08:28:55.492Z,13.60
2022-11-27T08:31:23.187Z,13.40
2022-11-27T08:33:50.296Z,14.07
2022-11-27T08:36:18.314Z,13.80
2022-11-27T08:38:46.672Z,14.13
2022-11-27T08:41:13.814Z,15.13
2022-11-27T08:43:40.688Z,13.33
2022-11-27T08:46:08.303Z,13.57
2022-11-27T08:48:36.117Z,12.40
2022-11-27T08:51:13.879Z,12.73
2022-11-27T08:53:41.323Z,12.10
2022-11-27T08:56:14.466Z,13.33
2022-11-27T08:58:41.505Z,12.10
2022-11-27T09:01:23.134Z,13.47
2022-11-27T09:03:50.858Z,13.67
2022-11-27T09:06:21.576Z,12.80
2022-11-27T09:08:49.533Z,13.17
2022-11-27T09:11:19.551Z,12.47
2022-11-27T09:13:47.128Z,11.00
2022-11-27T09:16:18.256Z,12.50
2022-11-27T09:18:47.863Z,12.50
2022-11-27T09:21:17.571Z,13.23
2022-11-27T09:23:44.723Z,11.33
2022-11-27T09:26:16.720Z,12.50
2022-11-27T09:28:44.886Z,11.87
2022-11-27T09:31:15.107Z,13.70
2022-11-27T09:33:43.107Z,13.70
2022-11-27T09:36:22.635Z,14.20
2022-11-27T09:38:50.133Z,10.70
2022-11-27T09:41:19.912Z,11.90
2022-11-27T09:43:57.865Z,11.30
2022-11-27T09:46:39.072Z,11.10
2022-11-27T09:49:14.684Z,11.43
2022-11-27T09:52:09.388Z,11.50
2022-11-27T09:54:52.596Z,13.67
2022-11-27T09:57:28.411Z,13.00
2022-11-27T10:00:01.888Z,11.10
2022-11-27T10:02:32.442Z,10.63
2022-11-27T10:05:20.080Z,12.37
2022-11-27T10:08:30.220Z,11.83
2022-11-27T10:11:29.761Z,21.20
2022-11-27T10:14:18.256Z,11.57
2022-11-27T10:16:55.119Z,12.17
2022-11-27T10:19:55.450Z,11.30
2022-11-27T10:22:50.250Z,11.97
2022-11-27T10:25:46.276Z,11.93
2022-11-27T10:28:42.069Z,11.80
2022-11-27T10:31:50.224Z,11.77
2022-11-27T10:34:42.470Z,11.37
2022-11-27T10:37:38.127Z,11.40
2022-11-27T10:40:28.776Z,11.97
2022-11-27T10:43:14.818Z,22.80
2022-11-27T10:45:45.837Z,19.57
2022-11-27T10:48:14.339Z,13.67
2022-11-27T10:50:42.561Z,10.80
2022-11-27T10:53:30.963Z,11.83
2022-11-27T10:56:16.088Z,11.33
2022-11-27T10:59:21.508Z,11.33
2022-11-27T11:01:53.392Z,11.13
2022-11-27T11:04:37.863Z,11.73
2022-11-27T11:07:29.042Z,11.37
2022-11-27T11:09:56.806Z,12.03
2022-11-27T11:12:24.487Z,12.43
2022-11-27T11:14:57.609Z,11.60
2022-11-27T11:17:35.001Z,11.37
2022-11-27T11:20:30.598Z,10.40
2022-11-27T11:22:57.768Z,12.17
2022-11-27T11:25:24.723Z,11.20
2022-11-27T11:27:52.512Z,11.00
2022-11-27T11:30:26.789Z,11.67
2022-11-27T11:33:02.139Z,10.97
2022-11-27T11:35:34.707Z,11.27
2022-11-27T11:38:05.616Z,10.87
2022-11-27T11:40:35.405Z,11.37
2022-11-27T11:43:28.668Z,10.77
2022-11-27T11:46:07.280Z,11.83
2022-11-27T11:48:35.905Z,9.77
2022-11-27T11:51:18.004Z,12.20
2022-11-27T11:53:54.027Z,13.33
2022-11-27T11:56:44.849Z,11.67
2022-11-27T11:59:33.232Z,10.00
2022-11-27T12:02:49.770Z,11.50
2022-11-27T12:05:37.497Z,11.40
2022-11-27T12:08:29.238Z,11.77
2022-11-27T12:11:21.709Z,10.77
2022-11-27T12:14:16.600Z,10.43
2022-11-27T12:17:14.551Z,10.77
2022-11-27T12:20:27.243Z,10.60
2022-11-27T12:23:37.885Z,10.60
2022-11-27T12:26:36.241Z,10.63
2022-11-27T12:29:24.652Z,11.70
2022-11-27T12:32:33.900Z,11.00
2022-11-27T12:35:32.341Z,10.90
2022-11-27T12:38:32.959Z,12.33
2022-11-27T12:41:34.561Z,11.67
2022-11-27T12:44:02.165Z,11.60
2022-11-27T12:46:48.953Z,11.40
2022-11-27T12:49:46.488Z,10.73
2022-11-27T12:52:21.604Z,11.10
2022-11-27T12:55:00.053Z,11.00
2022-11-27T12:57:40.571Z,11.20
2022-11-27T13:00:21.810Z,12.60
2022-11-27T13:03:15.834Z,11.47
2022-11-27T13:06:15.028Z,10.33
2022-11-27T13:09:04.884Z,10.90
2022-11-27T13:11:37.631Z,11.10
2022-11-27T13:14:12.917Z,10.67
2022-11-27T13:16:46.511Z,9.93
2022-11-27T13:19:34.689Z,10.87
2022-11-27T13:22:06.976Z,10.03
2022-11-27T13:24:34.513Z,9.63
2022-11-27T13:27:20.161Z,10.10
2022-11-27T13:30:01.657Z,9.60
2022-11-27T13:32:40.640Z,8.00
2022-11-27T13:35:40.014Z,9.33
2022-11-27T13:38:23.040Z,10.17
2022-11-27T13:40:53.831Z,8.90
2022-11-27T13:43:51.457Z,10.20
2022-11-27T13:46:25.846Z,11.20
2022-11-27T13:49:03.753Z,10.97
2022-11-27T13:51:34.921Z,10.90
2022-11-27T13:54:23.273Z,9.67
2022-11-27T13:56:52.902Z,9.27
2022-11-27T13:59:23.819Z,10.00
2022-11-27T14:02:09.576Z,10.13
2022-11-27T14:04:55.610Z,10.90
2022-11-27T14:07:24.102Z,9.07
2022-11-27T14:09:56.462Z,10.47
2022-11-27T14:12:31.809Z,11.40
2022-11-27T14:15:16.512Z,10.37
2022-11-27T14:17:47.194Z,10.57
2022-11-27T14:20:17.226Z,10.37
2022-11-27T14:23:09.965Z,9.70
2022-11-27T14:25:36.329Z,10.00
2022-11-27T14:28:26.252Z,9.60
2022-11-27T14:30:58.025Z,9.90
2022-11-27T14:33:31.433Z,10.07
2022-11-27T14:36:04.092Z,10.87
2022-11-27T14:38:34.029Z,10.87
2022-11-27T14:41:17.621Z,9.57
2022-11-27T14:43:44.486Z,9.97
2022-11-27T14:46:22.120Z,10.20
2022-11-27T14:48:55.345Z,9.60
2022-11-27T14:51:30.276Z,10.50
2022-11-27T14:54:04.096Z,9.60
2022-11-27T14:56:37.862Z,10.40
2022-11-27T14:59:06.644Z,10.30
2022-11-27T15:01:36.551Z,9.40
2022-11-27T15:04:41.451Z,9.87
2022-11-27T15:07:18.159Z,8.40
2022-11-27T15:09:52.247Z,8.63
2022-11-27T15:12:33.834Z,9.13
2022-11-27T15:15:07.914Z,19.27
2022-11-27T15:17:38.856Z,11.50
2022-11-27T15:20:29.686Z,9.60
2022-11-27T15:22:59.009Z,10.23
2022-11-27T15:25:43.916Z,8.80
2022-11-27T15:28:43.377Z,9.10
2022-11-27T15:31:28.596Z,9.63
2022-11-27T15:33:58.363Z,9.90
2022-11-27T15:36:25.776Z,10.40
2022-11-27T15:38:53.176Z,9.83
2022-11-27T15:41:28.399Z,13.17
2022-11-27T15:43:56.655Z,11.27
2022-11-27T15:46:30.423Z,10.40
2022-11-27T15:48:57.578Z,9.43
2022-11-27T15:51:24.521Z,10.47
2022-11-27T15:53:51.698Z,9.37
2022-11-27T15:56:19.347Z,11.07
2022-11-27T15:58:46.237Z,10.47
2022-11-27T16:01:13.205Z,10.40
2022-11-27T16:03:40.566Z,10.60
2022-11-27T16:06:09.207Z,12.57
2022-11-27T16:08:36.679Z,11.60
2022-11-27T16:11:13.501Z,10.97
2022-11-27T16:13:40.574Z,10.23
2022-11-27T16:16:08.862Z,10.30
2022-11-27T16:18:36.689Z,10.97
2022-11-27T16:21:09.810Z,12.77
2022-11-27T16:23:38.654Z,12.23
2022-11-27T16:26:06.145Z,11.33
2022-11-27T16:28:33.789Z,12.57
2022-11-27T16:31:03.684Z,9.93
2022-11-27T16:33:32.191Z,11.10
2022-11-27T16:36:16.276Z,9.87
2022-11-27T16:38:44.427Z,10.23
2022-11-27T16:41:17.034Z,9.40
2022-11-27T16:43:53.226Z,9.73
2022-11-27T16:46:25.822Z,9.30
2022-11-27T16:48:54.388Z,8.47
2022-11-27T16:51:23.869Z,8.53
2022-11-27T16:53:56.458Z,8.70
2022-11-27T16:56:26.604Z,10.97
2022-11-27T16:58:59.402Z,10.63
2022-11-27T17:01:35.964Z,10.07
2022-11-27T17:04:09.093Z,11.13
2022-11-27T17:06:38.496Z,9.43
2022-11-27T17:09:08.036Z,8.83
2022-11-27T17:11:37.565Z,9.57
2022-11-27T17:14:07.761Z,10.23
2022-11-27T17:16:39.514Z,9.00
2022-11-27T17:19:06.458Z,10.00
2022-11-27T17:21:35.428Z,10.70
2022-11-27T17:24:13.192Z,11.30
2022-11-27T17:26:44.601Z,11.10
2022-11-27T17:29:14.088Z,11.60
2022-11-27T17:31:41.636Z,10.97
2022-11-27T17:34:13.301Z,10.20
2022-11-27T17:36:42.854Z,10.60
2022-11-27T17:39:15.034Z,11.00
2022-11-27T17:41:45.032Z,10.70
2022-11-27T17:44:13.245Z,10.17
2022-11-27T17:46:40.295Z,10.40
2022-11-27T17:49:08.356Z,18.13
2022-11-27T17:51:36.478Z,36.83
2022-11-27T17:54:05.384Z,26.10
2022-11-27T17:56:34.054Z,13.33
2022-11-27T17:59:01.006Z,10.40
2022-11-27T18:01:30.020Z,9.80
2022-11-27T18:04:00.520Z,9.90
2022-11-27T18:06:27.649Z,10.60
2022-11-27T18:08:56.492Z,11.67
2022-11-27T18:11:26.109Z,12.50
2022-11-27T18:13:53.010Z,11.00
2022-11-27T18:16:24.309Z,10.20
2022-11-27T18:18:52.055Z,11.17
2022-11-27T18:21:20.919Z,11.10
2022-11-27T18:24:21.481Z,10.33
2022-11-27T18:27:07.688Z,9.70
2022-11-27T18:29:24.252Z,9.40
2022-11-27T18:31:52.707Z,10.70
2022-11-27T18:34:19.936Z,9.80
2022-11-27T18:36:46.895Z,10.50
2022-11-27T18:39:14.089Z,9.00
2022-11-27T18:41:41.028Z,9.70
2022-11-27T18:44:07.931Z,9.00
2022-11-27T18:46:34.991Z,9.00
2022-11-27T18:49:02.011Z,9.07
2022-11-27T18:51:29.027Z,9.83
2022-11-27T18:53:56.542Z,9.53
2022-11-27T18:56:32.027Z,9.23
2022-11-27T18:59:04.817Z,11.03
2022-11-27T19:01:41.213Z,9.97
2022-11-27T19:04:11.000Z,10.30
2022-11-27T19:06:39.850Z,10.60
2022-11-27T19:09:07.178Z,9.83
2022-11-27T19:11:35.254Z,11.53
2022-11-27T19:14:02.388Z,10.20
2022-11-27T19:16:34.461Z,9.90
2022-11-27T19:19:03.753Z,18.93
2022-11-27T19:21:33.018Z,16.10
2022-11-27T19:24:02.648Z,12.20
2022-11-27T19:26:35.673Z,11.90
2022-11-27T19:29:08.091Z,9.90
2022-11-27T19:31:38.033Z,10.53
2022-11-27T19:34:06.718Z,10.40
2022-11-27T19:36:35.551Z,11.50
2022-11-27T19:39:07.474Z,10.20
2022-11-27T19:41:35.486Z,9.33
2022-11-27T19:44:06.519Z,8.60
2022-11-27T19:46:36.991Z,9.53
2022-11-27T19:49:17.840Z,9.77
2022-11-27T19:51:45.629Z,9.17
2022-11-27T19:54:13.966Z,10.03
2022-11-27T19:56:42.656Z,9.30
2022-11-27T19:59:12.236Z,9.90
2022-11-27T20:01:40.223Z,9.60
2022-11-27T20:04:10.532Z,8.77
2022-11-27T20:06:37.825Z,9.90
2022-11-27T20:09:05.809Z,10.43
2022-11-27T20:11:35.442Z,10.57
2022-11-27T20:14:04.300Z,10.50
2022-11-27T20:16:32.499Z,11.10
2022-11-27T20:19:01.150Z,10.03
2022-11-27T20:21:28.090Z,10.50
2022-11-27T20:23:55.239Z,10.87
2022-11-27T20:26:25.894Z,9.23
2022-11-27T20:28:53.338Z,10.63
2022-11-27T20:31:33.374Z,8.97
2022-11-27T20:34:03.707Z,9.63
2022-11-27T20:36:33.610Z,10.93
2022-11-27T20:39:01.697Z,11.00
2022-11-27T20:41:29.220Z,11.80
2022-11-27T20:43:59.891Z,10.40
2022-11-27T20:46:28.261Z,11.20
2022-11-27T20:48:55.706Z,10.30
2022-11-27T20:51:28.412Z,10.47
2022-11-27T20:53:57.976Z,10.77
2022-11-27T20:56:25.774Z,11.20
2022-11-27T20:58:52.885Z,10.57
2022-11-27T21:01:41.452Z,10.20
2022-11-27T21:04:24.782Z,11.10
2022-11-27T21:06:52.228Z,11.37
2022-11-27T21:09:20.595Z,11.87
2022-11-27T21:11:47.825Z,11.40
2022-11-27T21:14:16.596Z,16.07
2022-11-27T21:16:48.534Z,15.20
2022-11-27T21:19:24.376Z,12.43
2022-11-27T21:21:53.435Z,11.50
2022-11-27T21:24:27.866Z,11.03
2022-11-27T21:26:55.102Z,11.03
2022-11-27T21:29:25.416Z,11.53
2022-11-27T21:31:53.211Z,11.13
2022-11-27T21:34:20.106Z,10.50
2022-11-27T21:36:47.034Z,10.77
2022-11-27T21:39:20.239Z,11.33
2022-11-27T21:41:50.542Z,10.50
2022-11-27T21:44:18.214Z,9.97
2022-11-27T21:46:49.313Z,11.33
2022-11-27T21:49:19.309Z,12.27
2022-11-27T21:51:46.513Z,11.50
2022-11-27T21:54:15.499Z,12.40
2022-11-27T21:56:42.410Z,12.40
2022-11-27T21:59:13.413Z,11.70
2022-11-27T22:01:40.812Z,12.00
2022-11-27T22:04:07.824Z,12.53
2022-11-27T22:06:41.110Z,15.37
2022-11-27T22:09:14.752Z,13.00
2022-11-27T22:11:42.738Z,11.83
2022-11-27T22:14:09.810Z,14.70
2022-11-27T22:16:44.396Z,13.40
2022-11-27T22:19:12.034Z,12.47
2022-11-27T22:21:38.944Z,13.07
2022-11-27T22:24:06.222Z,11.00
2022-11-27T22:26:33.129Z,12.50
2022-11-27T22:29:00.086Z,12.23
2022-11-27T22:31:30.369Z,12.10
2022-11-27T22:33:57.693Z,12.13
2022-11-27T22:36:34.486Z,13.30
2022-11-27T22:39:05.795Z,13.13
2022-11-27T22:41:36.540Z,13.37
2022-11-27T22:44:19.639Z,11.53
2022-11-27T22:46:47.094Z,12.47
2022-11-27T22:49:16.955Z,12.40
2022-11-27T22:51:44.518Z,11.40
2022-11-27T22:54:14.925Z,11.20
2022-11-27T22:56:41.868Z,12.20
2022-11-27T22:59:32.224Z,11.97
2022-11-27T23:01:56.761Z,11.80
2022-11-27T23:04:23.666Z,10.80
2022-11-27T23:06:50.601Z,12.40
2022-11-27T23:09:18.943Z,12.67
2022-11-27T23:11:46.643Z,12.17
2022-11-27T23:14:14.084Z,12.00
2022-11-27T23:16:41.283Z,11.00
2022-11-27T23:19:08.997Z,11.67
2022-11-27T23:21:37.728Z,12.50
2022-11-27T23:24:06.656Z,10.60
2022-11-27T23:26:34.059Z,10.87
2022-11-27T23:29:01.142Z,12.27
2022-11-27T23:31:32.459Z,12.10
2022-11-27T23:34:01.838Z,12.53
2022-11-27T23:36:30.802Z,12.60
2022-11-27T23:39:03.263Z,12.73
2022-11-27T23:41:30.928Z,11.70
2022-11-27T23:43:58.235Z,11.50
2022-11-27T23:46:28.360Z,12.53
2022-11-27T23:48:57.402Z,12.23
2022-11-27T23:51:28.214Z,14.10
2022-11-27T23:53:55.704Z,12.70
2022-11-27T23:56:31.876Z,12.50
2022-11-27T23:58:59.593Z,12.23
